Flight Track Log - Related Links

Times and Time Zones

All times are in EDT time to prevent confusion due to time zone crossing. See the JUS205 flight status page for this flight to view local times or setup timezone preferences in your user account.

Time Position Orientation Groundspeed Altitude Reporting Facility
EDT Latitude Longitude Course Direction KTS MPH feet Rate Location/Type
Wed 08:02:35 PM 43.0933 -77.7003 250° West 147 169 1,500  Level Cleveland Center
Wed 08:03:41 PM 43.0356 -77.7228 196° South 232 267 2,800 1,510 Climbing Cleveland Center
Wed 08:04:58 PM 42.9506 -77.7467 192° South 262 302 5,100 1,839 Climbing Cleveland Center
Wed 08:05:58 PM 42.8761 -77.7614 188° South 262 302 7,000 2,000 Climbing Cleveland Center
Wed 08:06:58 PM 42.7972 -77.7789 189° South 278 320 9,100 1,800 Climbing Cleveland Center
Wed 08:07:58 PM 42.7144 -77.7997 190° South 290 334 10,600 1,400 Climbing Cleveland Center
Wed 08:08:00 PM 42.4910 -77.9298 250° West  Level FlightAware
Wed 08:08:58 PM 42.6314 -77.8231 192° South 325 374 11,900  Level Cleveland Center
Wed 08:09:58 PM 42.5539 -77.8969 215° Southwest 335 386 13,500 1,488 Climbing Cleveland Center
Wed 08:10:59 PM 42.4789 -77.9847 221° Southwest 348 400 14,900 1,537 Climbing Cleveland Center
Wed 08:11:59 PM 42.4144 -78.0858 229° Southwest 353 406 16,600 1,513 Climbing Cleveland Center
Wed 08:12:58 PM 42.3458 -78.1867 227° Southwest 364 419 17,900 1,311 Climbing Cleveland Center
Wed 08:13:58 PM 42.2747 -78.2850 226° Southwest 364 419 19,200 1,100 Climbing Cleveland Center
Wed 08:14:58 PM 42.2017 -78.3856 226° Southwest 369 425 20,100 900 Climbing Cleveland Center
Wed 08:15:58 PM 42.1161 -78.5006 225° Southwest 383 441 21,000 843 Climbing Cleveland Center
Wed 08:16:59 PM 42.0347 -78.6094 225° Southwest 399 459 21,800 1,041 Climbing Cleveland Center
Wed 08:17:59 PM 41.9572 -78.7153 225° Southwest 405 466 23,100 1,200 Climbing Cleveland Center
Wed 08:18:59 PM 41.8881 -78.8147 227° Southwest 405 466 24,200 850 Climbing Cleveland Center
Wed 08:19:59 PM 41.8000 -78.9314 225° Southwest 405 466 24,800 750 Climbing Cleveland Center
Wed 08:20:59 PM 41.7200 -79.0197 220° Southwest 405 466 25,700 807 Climbing Cleveland Center
Wed 08:21:58 PM 41.6275 -79.1136 217° Southwest 416 479 26,400 655 Climbing Cleveland Center
Wed 08:22:58 PM 41.5306 -79.2072 216° Southwest 427 491 27,000 645 Climbing Cleveland Center
Wed 08:23:59 PM 41.4317 -79.3036 216° Southwest 437 503 27,700 700 Climbing Cleveland Center
Wed 08:24:58 PM 41.3308 -79.4133 219° Southwest 432 497 28,400 650 Climbing Cleveland Center
Wed 08:25:59 PM 41.2400 -79.5172 221° Southwest 437 503 29,000 595 Climbing Cleveland Center
Wed 08:26:59 PM 41.1431 -79.6236 220° Southwest 449 517 29,600 555 Climbing Cleveland Center
Wed 08:27:58 PM 41.0481 -79.7269 219° Southwest 449 517 30,100 550 Climbing Cleveland Center
Wed 08:28:59 PM 40.9506 -79.8297 219° Southwest 449 517 30,700 550 Climbing Cleveland Center
Wed 08:29:58 PM 40.8553 -79.9325 219° Southwest 449 517 31,200 504 Climbing Cleveland Center
Wed 08:30:58 PM 40.7558 -80.0375 219° Southwest 455 524 31,700 397 Climbing Cleveland Center
Wed 08:31:59 PM 40.6583 -80.1425 219° Southwest 455 524 32,000 150 Climbing Cleveland Center
Wed 08:32:58 PM 40.5608 -80.2497 220° Southwest 460 529 32,000  Level Cleveland Center
Wed 08:33:59 PM 40.4817 -80.3319 218° Southwest 466 536 32,000  Level Cleveland Center
Wed 08:34:59 PM 40.3756 -80.4469 220° Southwest 461 531 32,000  Level Cleveland Center
Wed 08:35:59 PM 40.2797 -80.5478 219° Southwest 456 525 32,000  Level Cleveland Center
Wed 08:36:58 PM 40.1797 -80.6511 218° Southwest 456 525 32,000  Level Cleveland Center
Wed 08:37:59 PM 40.0817 -80.7514 218° Southwest 456 525 32,000  Level Cleveland Center
Wed 08:40:19 PM 39.8294 -80.9297 209° Southwest 452 520 32,000  Level Indianapolis Center
Wed 08:41:21 PM 39.7136 -80.9906 202° Southwest 448 516 32,000  Level Indianapolis Center
Wed 08:42:22 PM 39.5772 -81.0683 204° Southwest 446 513 32,000  Level Indianapolis Center
Wed 08:43:24 PM 39.4633 -81.1353 204° Southwest 447 514 32,000  Level Indianapolis Center
Wed 08:44:25 PM 39.3508 -81.2006 204° Southwest 445 512 32,000  Level Indianapolis Center
Wed 08:45:26 PM 39.2381 -81.2650 204° Southwest 443 510 32,000  Level Indianapolis Center
Wed 08:46:28 PM 39.1244 -81.3269 203° Southwest 442 509 32,000  Level Indianapolis Center
Wed 08:47:29 PM 39.0128 -81.3908 204° Southwest 440 506 32,000  Level Indianapolis Center
Wed 08:48:31 PM 38.9006 -81.4564 204° Southwest 442 509 32,000  Level Indianapolis Center
Wed 08:49:32 PM 38.7822 -81.5256 204° Southwest 448 516 32,000  Level Indianapolis Center
Wed 08:50:33 PM 38.6678 -81.5911 204° Southwest 449 517 32,000  Level Indianapolis Center
Wed 08:51:35 PM 38.5428 -81.6639 204° Southwest 458 527 32,000  Level Indianapolis Center
Wed 08:52:36 PM 38.4272 -81.7294 204° Southwest 455 524 32,000  Level Indianapolis Center
Wed 08:53:38 PM 38.3097 -81.7906 202° Southwest 456 525 32,000  Level Indianapolis Center
Wed 08:54:39 PM 38.1903 -81.8517 202° Southwest 459 528 32,000  Level Indianapolis Center
Wed 08:55:41 PM 38.0681 -81.8989 197° South 460 529 32,000  Level Indianapolis Center
Wed 08:56:42 PM 37.9147 -81.8883 177° South 470 541 32,000  Level Indianapolis Center
Wed 08:57:44 PM 37.7986 -81.8508 166° South 471 542 32,000  Level Indianapolis Center
Wed 08:58:45 PM 37.6714 -81.8094 166° South 472 543 32,000  Level Indianapolis Center
Wed 08:59:47 PM 37.5228 -81.7592 165° South 470 541 32,000  Level Indianapolis Center
Wed 09:00:48 PM 37.3928 -81.7356 172° South 482 555 32,000 -49 Level Indianapolis Center
Wed 09:01:49 PM 37.2978 -81.8353 220° Southwest 451 519 31,900  Descending Indianapolis Center
Wed 09:02:51 PM 37.2128 -81.9536 228° Southwest 454 522 32,000 49 Climbing Indianapolis Center
Wed 09:03:52 PM 37.1297 -82.0717 229° Southwest 451 519 32,000  Level Indianapolis Center
Wed 09:04:54 PM 37.0522 -82.1992 233° Southwest 455 524 32,000  Level Indianapolis Center
Wed 09:05:55 PM 36.9731 -82.3231 231° Southwest 454 522 32,000  Level Indianapolis Center
Wed 09:06:57 PM 36.8906 -82.4442 230° Southwest 454 522 32,000  Level Indianapolis Center
Wed 09:07:58 PM 36.8094 -82.5672 231° Southwest 453 521 32,000  Level Indianapolis Center
Wed 09:09:00 PM 36.7267 -82.6908 230° Southwest 457 526 32,000  Level Indianapolis Center
Wed 09:10:01 PM 36.6439 -82.8139 230° Southwest 457 526 32,000  Level Indianapolis Center
Wed 09:11:02 PM 36.5483 -82.9556 230° Southwest 455 524 32,000  Level Indianapolis Center
Wed 09:12:04 PM 36.4661 -83.0767 230° Southwest 454 522 32,000  Level Indianapolis Center
Wed 09:13:05 PM 36.3844 -83.1972 230° Southwest 454 522 32,000  Level Indianapolis Center
Wed 09:14:07 PM 36.3028 -83.3183 230° Southwest 454 522 32,000  Level Indianapolis Center
Wed 09:15:08 PM 36.2203 -83.4361 229° Southwest 453 521 32,000  Level Indianapolis Center
Wed 09:16:09 PM 36.1486 -83.5444 231° Southwest 453 521 32,000  Level Indianapolis Center
Wed 09:17:11 PM 36.0511 -83.6869 230° Southwest 452 520 32,000  Level Indianapolis Center
Wed 09:18:30 PM 35.9539 -83.8283 230° Southwest 454 522 32,000  Level Atlanta Center
Wed 09:19:30 PM 35.8683 -83.9464 228° Southwest 454 522 32,000  Level Atlanta Center
Wed 09:20:30 PM 35.7850 -84.0617 228° Southwest 454 522 32,000  Level Atlanta Center
Wed 09:21:30 PM 35.6994 -84.1742 227° Southwest 454 522 32,000  Level Atlanta Center
Wed 09:22:30 PM 35.6136 -84.2867 227° Southwest 454 522 32,000  Level Atlanta Center
Wed 09:23:30 PM 35.5278 -84.4011 227° Southwest 459 528 32,000  Level Atlanta Center
Wed 09:24:30 PM 35.4336 -84.5281 228° Southwest 464 534 32,000  Level Atlanta Center
Wed 09:25:30 PM 35.3497 -84.6422 228° Southwest 464 534 32,000  Level Atlanta Center
Wed 09:26:30 PM 35.2633 -84.7536 226° Southwest 464 534 32,000  Level Atlanta Center
Wed 09:27:30 PM 35.1772 -84.8672 227° Southwest 464 534 32,000  Level Atlanta Center
Wed 09:28:30 PM 35.0908 -84.9831 228° Southwest 464 534 32,000  Level Atlanta Center
Wed 09:29:30 PM 35.0064 -85.0936 227° Southwest 464 534 32,000  Level Atlanta Center
Wed 09:30:30 PM 34.9200 -85.2067 227° Southwest 464 534 32,000  Level Atlanta Center
Wed 09:31:30 PM 34.8375 -85.3192 228° Southwest 464 534 32,000  Level Atlanta Center
Wed 09:32:30 PM 34.7547 -85.4342 229° Southwest 464 534 32,000  Level Atlanta Center
Wed 09:33:30 PM 34.6719 -85.5492 229° Southwest 458 527 32,000  Level Atlanta Center
Wed 09:34:30 PM 34.5914 -85.6611 229° Southwest 458 527 32,000  Level Atlanta Center
Wed 09:35:30 PM 34.5083 -85.7756 229° Southwest 453 521 32,000  Level Atlanta Center
Wed 09:36:30 PM 34.4317 -85.8722 226° Southwest 453 521 32,000  Level Atlanta Center
Wed 09:37:30 PM 34.3508 -85.9889 230° Southwest 453 521 32,000  Level Atlanta Center
Wed 09:38:30 PM 34.2697 -86.0975 228° Southwest 453 521 32,000  Level Atlanta Center
Wed 09:39:30 PM 34.1842 -86.2108 228° Southwest 453 521 32,000  Level Atlanta Center
Wed 09:40:30 PM 34.0986 -86.3267 228° Southwest 453 521 32,000  Level Atlanta Center
Wed 09:41:30 PM 34.0131 -86.4397 228° Southwest 453 521 32,000  Level Atlanta Center
Wed 09:42:30 PM 33.9272 -86.5525 227° Southwest 453 521 32,000  Level Atlanta Center
Wed 09:43:30 PM 33.8350 -86.6772 228° Southwest 453 521 32,000  Level Atlanta Center
Wed 09:44:30 PM 33.7661 -86.7675 227° Southwest 453 521 32,000  Level Atlanta Center
Wed 09:45:30 PM 33.6650 -86.9042 228° Southwest 459 528 32,000  Level Atlanta Center
Wed 09:47:07 PM 33.6064 -87.1122 251° West 444 511 32,000  Level Memphis Center
Wed 09:48:07 PM 33.6206 -87.2589 277° West 430 495 32,000  Level Memphis Center
Wed 09:49:07 PM 33.6014 -87.4092 261° West 446 513 32,000  Level Memphis Center
Wed 09:50:07 PM 33.5906 -87.5742 266° West 451 519 32,000  Level Memphis Center
Wed 09:51:07 PM 33.5728 -87.7219 262° West 451 519 32,000  Level Memphis Center
Wed 09:52:07 PM 33.5550 -87.8694 262° West 451 519 32,000  Level Memphis Center
Wed 09:53:07 PM 33.5286 -88.0172 258° West 451 519 32,000  Level Memphis Center
Wed 09:54:07 PM 33.5061 -88.1575 259° West 445 512 32,000  Level Memphis Center
Wed 09:55:07 PM 33.4897 -88.2922 262° West 450 518 32,000  Level Memphis Center
Wed 09:56:07 PM 33.4669 -88.4347 259° West 450 518 32,000  Level Memphis Center
Wed 09:57:07 PM 33.4400 -88.5797 257° West 450 518 32,000  Level Memphis Center
Wed 09:58:07 PM 33.4167 -88.7247 259° West 450 518 32,000  Level Memphis Center
Wed 09:59:07 PM 33.3936 -88.8694 259° West 450 518 32,000  Level Memphis Center
Wed 10:00:07 PM 33.3681 -89.0142 258° West 450 518 32,000  Level Memphis Center
Wed 10:01:07 PM 33.3444 -89.1586 259° West 450 518 32,000  Level Memphis Center
Wed 10:02:07 PM 33.3186 -89.3031 258° West 450 518 32,000  Level Memphis Center
Wed 10:03:07 PM 33.2886 -89.4675 258° West 456 525 32,000  Level Memphis Center
Wed 10:04:07 PM 33.2647 -89.6119 259° West 456 525 32,000  Level Memphis Center
Wed 10:05:07 PM 33.2383 -89.7586 258° West 456 525 32,000  Level Memphis Center
Wed 10:06:07 PM 33.2117 -89.9078 258° West 456 525 32,000  Level Memphis Center
Wed 10:07:07 PM 33.1850 -90.0569 258° West 456 525 32,000  Level Memphis Center
Wed 10:08:07 PM 33.1583 -90.2008 258° West 456 525 32,000  Level Memphis Center
Wed 10:09:07 PM 33.1292 -90.3497 257° West 456 525 32,000  Level Memphis Center
Wed 10:10:07 PM 33.1039 -90.4836 257° West 451 519 32,000  Level Memphis Center
Wed 10:11:07 PM 33.0767 -90.6325 258° West 451 519 32,000  Level Memphis Center
Wed 10:12:07 PM 33.0511 -90.7811 258° West 451 519 32,000  Level Memphis Center
Wed 10:13:07 PM 33.0233 -90.9272 257° West 451 519 32,000  Level Memphis Center
Wed 10:14:07 PM 32.9936 -91.0756 257° West 451 519 32,000  Level Memphis Center
Wed 10:15:07 PM 32.9675 -91.2239 258° West 451 519 32,000  Level Memphis Center
Wed 10:17:09 PM 32.9111 -91.5369 258° West 480 552 32,000  Level Fort Center
Wed 10:18:09 PM 32.8803 -91.6850 256° West 469 540 32,000  Level Fort Center
Wed 10:19:09 PM 32.8536 -91.8325 258° West 469 540 32,000  Level Fort Center
Wed 10:20:09 PM 32.8286 -91.9797 259° West 462 532 32,000 -250 Level Fort Center
Wed 10:21:09 PM 32.7953 -92.1275 255° West 462 532 31,500 -850 Descending Fort Center
Wed 10:22:09 PM 32.7681 -92.2775 258° West 462 532 30,300 -1,250 Descending Fort Center
Wed 10:23:09 PM 32.7386 -92.4272 257° West 462 532 29,000 -1,650 Descending Fort Center
Wed 10:24:09 PM 32.7050 -92.5772 255° West 462 532 27,000 -2,650 Descending Fort Center
Wed 10:25:09 PM 32.6769 -92.7219 257° West 462 532 23,700 -3,200 Descending Fort Center
Wed 10:26:09 PM 32.6508 -92.8589 257° West 450 518 20,600 -3,026 Descending Fort Center
Wed 10:27:04 PM 32.6200 -92.9911 255° West 422 486 17,900 -2,483 Descending Fort Center
Wed 10:28:05 PM 32.5953 -93.1181 257° West 389 448 15,800 -2,016 Descending Fort Center
Wed 10:29:06 PM 32.6033 -93.2386 275° West 350 403 13,800 -2,132 Descending Fort Center
Wed 10:30:06 PM 32.6033 -93.3594 270° West 335 386 11,500 -1,774 Descending Fort Center
Wed 10:31:01 PM 32.6061 -93.4481 272° West 324 373 10,400 -1,500 Descending Fort Center
Wed 10:32:02 PM 32.6175 -93.5511 278° West 288 331 8,600 -1,654 Descending Fort Center
Wed 10:33:08 PM 32.6517 -93.6383 295° West 257 296 6,900 -1,587 Descending Fort Center
Wed 10:34:03 PM 32.6722 -93.7042 290° West 233 268 5,400 -1,041 Descending Fort Center
Wed 10:35:09 PM 32.6664 -93.7833 265° West 222 255 4,800 -952 Descending Fort Center
Wed 10:36:09 PM 32.6578 -93.8478 261° West 210 242 3,400 -850 Descending Fort Center
Wed 10:37:09 PM 32.6297 -93.8983 237° Southwest 196 226 3,100 -155 Descending Fort Center
Wed 10:38:05 PM 32.5931 -93.9219 208° Southwest 158 182 3,100 -359 Level Fort Center
Wed 10:39:06 PM 32.5467 -93.9139 172° South 161 185 2,400 -689 Descending Fort Center
Wed 10:40:07 PM 32.5128 -93.8931 153° Southeast 133 153 1,700 -683 Descending Fort Center
Wed 10:41:09 PM 32.4869 -93.8619 135° Southeast 139 160 1,000 -677 Descending Fort Center

Login

Don't have an account? Register now (free) for customized features, flight alerts, and more!